sensor_id;sensor_type;location;lat;lon;timestamp;P1;durP1;ratioP1;P2;durP2;ratioP2
42246;SDS011;27913;42.722;23.268;2023-06-26T00:04:35;7.90;;;5.55;;
42246;SDS011;27913;42.722;23.268;2023-06-26T00:07:02;7.22;;;5.47;;
42246;SDS011;27913;42.722;23.268;2023-06-26T00:09:29;8.88;;;6.07;;
42246;SDS011;27913;42.722;23.268;2023-06-26T00:11:54;9.15;;;6.40;;
42246;SDS011;27913;42.722;23.268;2023-06-26T00:14:20;12.13;;;7.00;;
42246;SDS011;27913;42.722;23.268;2023-06-26T00:16:46;6.90;;;5.15;;
42246;SDS011;27913;42.722;23.268;2023-06-26T00:19:11;6.63;;;5.10;;
42246;SDS011;27913;42.722;23.268;2023-06-26T00:21:37;8.10;;;5.55;;
42246;SDS011;27913;42.722;23.268;2023-06-26T00:24:02;12.10;;;5.50;;
42246;SDS011;27913;42.722;23.268;2023-06-26T00:26:28;10.40;;;6.32;;
42246;SDS011;27913;42.722;23.268;2023-06-26T00:28:54;9.73;;;5.78;;
42246;SDS011;27913;42.722;23.268;2023-06-26T00:31:19;6.47;;;4.95;;
42246;SDS011;27913;42.722;23.268;2023-06-26T00:33:44;9.93;;;5.50;;
42246;SDS011;27913;42.722;23.268;2023-06-26T00:36:10;7.43;;;5.10;;
42246;SDS011;27913;42.722;23.268;2023-06-26T00:38:35;9.27;;;5.15;;
42246;SDS011;27913;42.722;23.268;2023-06-26T00:41:01;6.88;;;5.03;;
42246;SDS011;27913;42.722;23.268;2023-06-26T00:43:26;7.45;;;4.68;;
42246;SDS011;27913;42.722;23.268;2023-06-26T00:45:52;6.47;;;4.85;;
42246;SDS011;27913;42.722;23.268;2023-06-26T00:48:17;5.95;;;4.03;;
42246;SDS011;27913;42.722;23.268;2023-06-26T00:50:43;9.30;;;5.40;;
42246;SDS011;27913;42.722;23.268;2023-06-26T00:53:09;12.55;;;4.50;;
42246;SDS011;27913;42.722;23.268;2023-06-26T00:55:35;8.10;;;5.32;;
42246;SDS011;27913;42.722;23.268;2023-06-26T00:58:00;7.00;;;4.20;;
42246;SDS011;27913;42.722;23.268;2023-06-26T01:00:26;5.25;;;3.75;;
42246;SDS011;27913;42.722;23.268;2023-06-26T01:02:51;4.75;;;3.42;;
42246;SDS011;27913;42.722;23.268;2023-06-26T01:05:17;5.47;;;4.05;;
42246;SDS011;27913;42.722;23.268;2023-06-26T01:07:48;5.63;;;4.15;;
42246;SDS011;27913;42.722;23.268;2023-06-26T01:10:14;7.45;;;5.25;;
42246;SDS011;27913;42.722;23.268;2023-06-26T01:12:40;6.05;;;4.32;;
42246;SDS011;27913;42.722;23.268;2023-06-26T01:15:06;8.95;;;4.80;;
42246;SDS011;27913;42.722;23.268;2023-06-26T01:17:32;6.57;;;4.40;;
42246;SDS011;27913;42.722;23.268;2023-06-26T01:20:04;6.18;;;4.50;;
42246;SDS011;27913;42.722;23.268;2023-06-26T01:22:37;6.80;;;4.38;;
42246;SDS011;27913;42.722;23.268;2023-06-26T01:25:29;6.25;;;4.65;;
42246;SDS011;27913;42.722;23.268;2023-06-26T01:28:15;6.97;;;4.80;;
42246;SDS011;27913;42.722;23.268;2023-06-26T01:30:43;5.47;;;3.92;;
42246;SDS011;27913;42.722;23.268;2023-06-26T01:33:10;5.68;;;3.60;;
42246;SDS011;27913;42.722;23.268;2023-06-26T01:35:37;7.13;;;4.72;;
42246;SDS011;27913;42.722;23.268;2023-06-26T01:38:22;5.50;;;3.80;;
42246;SDS011;27913;42.722;23.268;2023-06-26T01:40:51;5.95;;;4.22;;
42246;SDS011;27913;42.722;23.268;2023-06-26T01:43:37;6.03;;;4.57;;
42246;SDS011;27913;42.722;23.268;2023-06-26T01:46:32;6.45;;;4.28;;
42246;SDS011;27913;42.722;23.268;2023-06-26T01:49:07;5.95;;;3.92;;
42246;SDS011;27913;42.722;23.268;2023-06-26T01:51:47;8.00;;;4.70;;
42246;SDS011;27913;42.722;23.268;2023-06-26T01:54:20;5.72;;;4.28;;
42246;SDS011;27913;42.722;23.268;2023-06-26T01:56:49;6.53;;;4.82;;
42246;SDS011;27913;42.722;23.268;2023-06-26T01:59:16;6.18;;;4.63;;
42246;SDS011;27913;42.722;23.268;2023-06-26T02:01:44;6.00;;;4.35;;
42246;SDS011;27913;42.722;23.268;2023-06-26T02:04:09;8.20;;;4.95;;
42246;SDS011;27913;42.722;23.268;2023-06-26T02:06:35;7.45;;;5.28;;
42246;SDS011;27913;42.722;23.268;2023-06-26T02:09:00;5.75;;;4.47;;
42246;SDS011;27913;42.722;23.268;2023-06-26T02:11:25;9.55;;;4.75;;
42246;SDS011;27913;42.722;23.268;2023-06-26T02:13:51;7.57;;;4.47;;
42246;SDS011;27913;42.722;23.268;2023-06-26T02:16:17;7.97;;;5.00;;
42246;SDS011;27913;42.722;23.268;2023-06-26T02:18:42;7.28;;;5.07;;
42246;SDS011;27913;42.722;23.268;2023-06-26T02:21:08;6.43;;;4.68;;
42246;SDS011;27913;42.722;23.268;2023-06-26T02:23:34;5.60;;;4.50;;
42246;SDS011;27913;42.722;23.268;2023-06-26T02:25:59;8.77;;;6.05;;
42246;SDS011;27913;42.722;23.268;2023-06-26T02:28:25;9.20;;;5.93;;
42246;SDS011;27913;42.722;23.268;2023-06-26T02:30:51;6.45;;;4.82;;
42246;SDS011;27913;42.722;23.268;2023-06-26T02:33:16;6.28;;;4.78;;
42246;SDS011;27913;42.722;23.268;2023-06-26T02:35:42;8.18;;;5.88;;
42246;SDS011;27913;42.722;23.268;2023-06-26T02:38:07;9.50;;;6.45;;
42246;SDS011;27913;42.722;23.268;2023-06-26T02:40:33;8.73;;;5.97;;
42246;SDS011;27913;42.722;23.268;2023-06-26T02:42:59;7.68;;;5.63;;
42246;SDS011;27913;42.722;23.268;2023-06-26T02:45:24;8.63;;;6.53;;
42246;SDS011;27913;42.722;23.268;2023-06-26T02:47:50;7.35;;;5.68;;
42246;SDS011;27913;42.722;23.268;2023-06-26T02:50:15;8.10;;;5.72;;
42246;SDS011;27913;42.722;23.268;2023-06-26T02:52:41;7.85;;;5.65;;
42246;SDS011;27913;42.722;23.268;2023-06-26T02:55:06;9.13;;;5.88;;
42246;SDS011;27913;42.722;23.268;2023-06-26T02:57:32;7.85;;;5.28;;
42246;SDS011;27913;42.722;23.268;2023-06-26T02:59:57;9.57;;;6.15;;
42246;SDS011;27913;42.722;23.268;2023-06-26T03:02:23;8.68;;;6.57;;
42246;SDS011;27913;42.722;23.268;2023-06-26T03:04:48;7.03;;;5.40;;
42246;SDS011;27913;42.722;23.268;2023-06-26T03:07:15;7.72;;;5.50;;
42246;SDS011;27913;42.722;23.268;2023-06-26T03:09:41;8.40;;;6.93;;
42246;SDS011;27913;42.722;23.268;2023-06-26T03:12:06;7.72;;;5.75;;
42246;SDS011;27913;42.722;23.268;2023-06-26T03:14:32;8.55;;;6.32;;
42246;SDS011;27913;42.722;23.268;2023-06-26T03:16:58;9.48;;;6.75;;
42246;SDS011;27913;42.722;23.268;2023-06-26T03:19:24;8.52;;;6.32;;
42246;SDS011;27913;42.722;23.268;2023-06-26T03:21:50;10.95;;;7.07;;
42246;SDS011;27913;42.722;23.268;2023-06-26T03:24:15;8.45;;;6.40;;
42246;SDS011;27913;42.722;23.268;2023-06-26T03:26:41;10.70;;;6.97;;
42246;SDS011;27913;42.722;23.268;2023-06-26T03:29:06;9.35;;;6.28;;
42246;SDS011;27913;42.722;23.268;2023-06-26T03:31:32;8.95;;;6.88;;
42246;SDS011;27913;42.722;23.268;2023-06-26T03:33:57;7.47;;;5.82;;
42246;SDS011;27913;42.722;23.268;2023-06-26T03:36:23;9.65;;;6.88;;
42246;SDS011;27913;42.722;23.268;2023-06-26T03:38:48;9.02;;;6.80;;
42246;SDS011;27913;42.722;23.268;2023-06-26T03:41:13;9.02;;;6.80;;
42246;SDS011;27913;42.722;23.268;2023-06-26T03:43:39;9.15;;;6.32;;
42246;SDS011;27913;42.722;23.268;2023-06-26T03:46:04;8.77;;;6.65;;
42246;SDS011;27913;42.722;23.268;2023-06-26T03:48:30;14.05;;;6.88;;
42246;SDS011;27913;42.722;23.268;2023-06-26T03:50:55;6.85;;;5.80;;
42246;SDS011;27913;42.722;23.268;2023-06-26T03:53:21;10.70;;;6.82;;
42246;SDS011;27913;42.722;23.268;2023-06-26T03:55:46;8.02;;;6.30;;
42246;SDS011;27913;42.722;23.268;2023-06-26T03:58:12;9.50;;;6.75;;
42246;SDS011;27913;42.722;23.268;2023-06-26T04:00:37;10.43;;;7.22;;
42246;SDS011;27913;42.722;23.268;2023-06-26T04:03:02;8.68;;;6.35;;
42246;SDS011;27913;42.722;23.268;2023-06-26T04:05:29;12.70;;;6.55;;
42246;SDS011;27913;42.722;23.268;2023-06-26T04:07:54;8.13;;;6.30;;
42246;SDS011;27913;42.722;23.268;2023-06-26T04:10:20;11.35;;;7.50;;
42246;SDS011;27913;42.722;23.268;2023-06-26T04:12:48;10.20;;;6.95;;
42246;SDS011;27913;42.722;23.268;2023-06-26T04:15:13;8.07;;;5.85;;
42246;SDS011;27913;42.722;23.268;2023-06-26T04:17:39;8.30;;;6.63;;
42246;SDS011;27913;42.722;23.268;2023-06-26T04:20:05;6.97;;;5.65;;
42246;SDS011;27913;42.722;23.268;2023-06-26T04:22:31;7.32;;;5.72;;
42246;SDS011;27913;42.722;23.268;2023-06-26T04:24:57;11.32;;;7.43;;
42246;SDS011;27913;42.722;23.268;2023-06-26T04:27:23;9.73;;;5.75;;
42246;SDS011;27913;42.722;23.268;2023-06-26T04:29:48;7.28;;;6.18;;
42246;SDS011;27913;42.722;23.268;2023-06-26T04:32:13;10.30;;;6.43;;
42246;SDS011;27913;42.722;23.268;2023-06-26T04:34:39;7.38;;;5.80;;
42246;SDS011;27913;42.722;23.268;2023-06-26T04:37:07;8.05;;;5.93;;
42246;SDS011;27913;42.722;23.268;2023-06-26T04:39:34;9.48;;;6.50;;
42246;SDS011;27913;42.722;23.268;2023-06-26T04:42:01;9.75;;;5.85;;
42246;SDS011;27913;42.722;23.268;2023-06-26T04:44:27;9.65;;;6.70;;
42246;SDS011;27913;42.722;23.268;2023-06-26T04:46:52;7.95;;;6.10;;
42246;SDS011;27913;42.722;23.268;2023-06-26T04:49:18;9.35;;;6.75;;
42246;SDS011;27913;42.722;23.268;2023-06-26T04:51:44;7.75;;;5.70;;
42246;SDS011;27913;42.722;23.268;2023-06-26T04:54:10;8.63;;;6.45;;
42246;SDS011;27913;42.722;23.268;2023-06-26T04:56:36;7.20;;;5.70;;
42246;SDS011;27913;42.722;23.268;2023-06-26T04:59:02;8.05;;;6.25;;
42246;SDS011;27913;42.722;23.268;2023-06-26T05:01:28;11.90;;;6.50;;
42246;SDS011;27913;42.722;23.268;2023-06-26T05:04:03;7.95;;;5.45;;
42246;SDS011;27913;42.722;23.268;2023-06-26T05:06:29;8.13;;;5.82;;
42246;SDS011;27913;42.722;23.268;2023-06-26T05:08:54;9.07;;;6.30;;
42246;SDS011;27913;42.722;23.268;2023-06-26T05:11:19;7.78;;;5.95;;
42246;SDS011;27913;42.722;23.268;2023-06-26T05:13:45;8.50;;;5.40;;
42246;SDS011;27913;42.722;23.268;2023-06-26T05:16:10;7.55;;;5.60;;
42246;SDS011;27913;42.722;23.268;2023-06-26T05:18:36;6.53;;;5.18;;
42246;SDS011;27913;42.722;23.268;2023-06-26T05:21:02;9.23;;;6.63;;
42246;SDS011;27913;42.722;23.268;2023-06-26T05:23:30;9.25;;;5.75;;
42246;SDS011;27913;42.722;23.268;2023-06-26T05:25:56;7.20;;;5.80;;
42246;SDS011;27913;42.722;23.268;2023-06-26T05:28:22;7.22;;;5.60;;
42246;SDS011;27913;42.722;23.268;2023-06-26T05:30:50;7.50;;;5.25;;
42246;SDS011;27913;42.722;23.268;2023-06-26T05:33:18;7.93;;;5.15;;
42246;SDS011;27913;42.722;23.268;2023-06-26T05:35:47;8.23;;;5.50;;
42246;SDS011;27913;42.722;23.268;2023-06-26T05:38:14;7.47;;;5.03;;
42246;SDS011;27913;42.722;23.268;2023-06-26T05:40:40;6.40;;;4.97;;
42246;SDS011;27913;42.722;23.268;2023-06-26T05:43:06;6.85;;;5.47;;
42246;SDS011;27913;42.722;23.268;2023-06-26T05:45:32;20.92;;;5.40;;
42246;SDS011;27913;42.722;23.268;2023-06-26T05:47:58;7.97;;;5.65;;
42246;SDS011;27913;42.722;23.268;2023-06-26T05:50:24;8.60;;;5.80;;
42246;SDS011;27913;42.722;23.268;2023-06-26T05:52:49;9.27;;;6.38;;
42246;SDS011;27913;42.722;23.268;2023-06-26T05:55:15;8.07;;;5.53;;
42246;SDS011;27913;42.722;23.268;2023-06-26T05:57:41;8.50;;;6.00;;
42246;SDS011;27913;42.722;23.268;2023-06-26T06:00:07;8.02;;;5.40;;
42246;SDS011;27913;42.722;23.268;2023-06-26T06:02:39;7.18;;;5.38;;
42246;SDS011;27913;42.722;23.268;2023-06-26T06:05:06;8.23;;;5.63;;
42246;SDS011;27913;42.722;23.268;2023-06-26T06:07:32;9.85;;;6.30;;
42246;SDS011;27913;42.722;23.268;2023-06-26T06:09:59;7.65;;;5.13;;
42246;SDS011;27913;42.722;23.268;2023-06-26T06:12:25;7.43;;;5.50;;
42246;SDS011;27913;42.722;23.268;2023-06-26T06:14:51;8.88;;;5.63;;
42246;SDS011;27913;42.722;23.268;2023-06-26T06:17:17;9.48;;;5.65;;
42246;SDS011;27913;42.722;23.268;2023-06-26T06:19:42;9.27;;;6.18;;
42246;SDS011;27913;42.722;23.268;2023-06-26T06:22:08;6.68;;;4.88;;
42246;SDS011;27913;42.722;23.268;2023-06-26T06:24:33;7.50;;;5.18;;
42246;SDS011;27913;42.722;23.268;2023-06-26T06:26:58;5.85;;;4.63;;
42246;SDS011;27913;42.722;23.268;2023-06-26T06:29:24;11.52;;;5.72;;
42246;SDS011;27913;42.722;23.268;2023-06-26T06:31:49;6.70;;;4.57;;
42246;SDS011;27913;42.722;23.268;2023-06-26T06:34:16;11.27;;;5.63;;
42246;SDS011;27913;42.722;23.268;2023-06-26T06:36:41;7.97;;;4.20;;
42246;SDS011;27913;42.722;23.268;2023-06-26T06:39:07;7.60;;;4.20;;
42246;SDS011;27913;42.722;23.268;2023-06-26T06:41:32;6.30;;;4.68;;
42246;SDS011;27913;42.722;23.268;2023-06-26T06:43:58;5.63;;;4.03;;
42246;SDS011;27913;42.722;23.268;2023-06-26T06:46:23;6.57;;;4.35;;
42246;SDS011;27913;42.722;23.268;2023-06-26T06:48:52;5.72;;;3.80;;
42246;SDS011;27913;42.722;23.268;2023-06-26T06:51:17;8.07;;;4.68;;
42246;SDS011;27913;42.722;23.268;2023-06-26T06:53:43;7.00;;;4.13;;
42246;SDS011;27913;42.722;23.268;2023-06-26T06:56:08;4.85;;;3.88;;
42246;SDS011;27913;42.722;23.268;2023-06-26T06:58:33;7.53;;;4.05;;
42246;SDS011;27913;42.722;23.268;2023-06-26T07:01:00;7.28;;;4.28;;
42246;SDS011;27913;42.722;23.268;2023-06-26T07:03:27;6.22;;;4.15;;
42246;SDS011;27913;42.722;23.268;2023-06-26T07:05:53;7.57;;;4.30;;
42246;SDS011;27913;42.722;23.268;2023-06-26T07:08:18;6.75;;;4.18;;
42246;SDS011;27913;42.722;23.268;2023-06-26T07:10:44;7.07;;;4.53;;
42246;SDS011;27913;42.722;23.268;2023-06-26T07:13:09;6.50;;;3.67;;
42246;SDS011;27913;42.722;23.268;2023-06-26T07:15:35;6.53;;;3.65;;
42246;SDS011;27913;42.722;23.268;2023-06-26T07:18:00;5.90;;;3.35;;
42246;SDS011;27913;42.722;23.268;2023-06-26T07:20:26;6.45;;;3.63;;
42246;SDS011;27913;42.722;23.268;2023-06-26T07:22:52;4.22;;;2.75;;
42246;SDS011;27913;42.722;23.268;2023-06-26T07:25:17;4.30;;;3.05;;
42246;SDS011;27913;42.722;23.268;2023-06-26T07:27:43;5.05;;;3.00;;
42246;SDS011;27913;42.722;23.268;2023-06-26T07:30:09;5.60;;;3.20;;
42246;SDS011;27913;42.722;23.268;2023-06-26T07:32:35;5.70;;;3.85;;
42246;SDS011;27913;42.722;23.268;2023-06-26T07:35:01;5.05;;;3.17;;
42246;SDS011;27913;42.722;23.268;2023-06-26T07:37:26;5.82;;;3.50;;
42246;SDS011;27913;42.722;23.268;2023-06-26T07:39:52;7.35;;;3.60;;
42246;SDS011;27913;42.722;23.268;2023-06-26T07:42:17;6.07;;;3.70;;
42246;SDS011;27913;42.722;23.268;2023-06-26T07:44:43;4.03;;;3.00;;
42246;SDS011;27913;42.722;23.268;2023-06-26T07:47:08;6.30;;;3.58;;
42246;SDS011;27913;42.722;23.268;2023-06-26T07:49:34;4.43;;;3.10;;
42246;SDS011;27913;42.722;23.268;2023-06-26T07:52:00;5.82;;;3.95;;
42246;SDS011;27913;42.722;23.268;2023-06-26T07:54:25;3.65;;;2.65;;
42246;SDS011;27913;42.722;23.268;2023-06-26T07:59:25;8.20;;;3.33;;
42246;SDS011;27913;42.722;23.268;2023-06-26T08:01:52;3.28;;;2.60;;
42246;SDS011;27913;42.722;23.268;2023-06-26T08:04:18;5.15;;;2.97;;
42246;SDS011;27913;42.722;23.268;2023-06-26T08:06:45;10.88;;;3.20;;
42246;SDS011;27913;42.722;23.268;2023-06-26T08:09:13;5.38;;;2.72;;
42246;SDS011;27913;42.722;23.268;2023-06-26T08:11:38;4.45;;;2.88;;
42246;SDS011;27913;42.722;23.268;2023-06-26T08:14:04;5.30;;;2.85;;
42246;SDS011;27913;42.722;23.268;2023-06-26T08:16:30;5.10;;;2.97;;
42246;SDS011;27913;42.722;23.268;2023-06-26T08:18:55;3.13;;;2.35;;
42246;SDS011;27913;42.722;23.268;2023-06-26T08:21:20;3.80;;;2.30;;
42246;SDS011;27913;42.722;23.268;2023-06-26T08:23:46;6.55;;;3.83;;
42246;SDS011;27913;42.722;23.268;2023-06-26T08:26:11;9.15;;;4.45;;
42246;SDS011;27913;42.722;23.268;2023-06-26T08:28:37;2.65;;;1.95;;
42246;SDS011;27913;42.722;23.268;2023-06-26T08:31:02;3.83;;;2.50;;
42246;SDS011;27913;42.722;23.268;2023-06-26T08:33:28;6.40;;;3.60;;
42246;SDS011;27913;42.722;23.268;2023-06-26T08:35:53;3.70;;;2.60;;
42246;SDS011;27913;42.722;23.268;2023-06-26T08:38:18;4.57;;;2.85;;
42246;SDS011;27913;42.722;23.268;2023-06-26T08:40:46;4.50;;;2.55;;
42246;SDS011;27913;42.722;23.268;2023-06-26T08:43:12;2.92;;;2.15;;
42246;SDS011;27913;42.722;23.268;2023-06-26T08:45:37;3.30;;;2.30;;
42246;SDS011;27913;42.722;23.268;2023-06-26T08:48:03;4.20;;;2.80;;
42246;SDS011;27913;42.722;23.268;2023-06-26T08:50:32;4.72;;;3.22;;
42246;SDS011;27913;42.722;23.268;2023-06-26T08:53:23;5.78;;;3.03;;
42246;SDS011;27913;42.722;23.268;2023-06-26T08:55:54;4.35;;;2.78;;
42246;SDS011;27913;42.722;23.268;2023-06-26T08:58:22;5.00;;;2.35;;
42246;SDS011;27913;42.722;23.268;2023-06-26T09:00:48;8.98;;;2.85;;
42246;SDS011;27913;42.722;23.268;2023-06-26T09:03:14;2.70;;;2.10;;
42246;SDS011;27913;42.722;23.268;2023-06-26T09:05:40;4.72;;;2.40;;
42246;SDS011;27913;42.722;23.268;2023-06-26T09:08:06;7.90;;;3.17;;
42246;SDS011;27913;42.722;23.268;2023-06-26T09:10:32;2.97;;;1.92;;
42246;SDS011;27913;42.722;23.268;2023-06-26T09:12:58;4.10;;;2.30;;
42246;SDS011;27913;42.722;23.268;2023-06-26T09:15:26;3.60;;;2.15;;
42246;SDS011;27913;42.722;23.268;2023-06-26T09:17:55;5.65;;;2.55;;
42246;SDS011;27913;42.722;23.268;2023-06-26T09:20:22;8.90;;;2.65;;
42246;SDS011;27913;42.722;23.268;2023-06-26T09:22:47;4.53;;;2.22;;
42246;SDS011;27913;42.722;23.268;2023-06-26T09:25:13;4.95;;;2.97;;
42246;SDS011;27913;42.722;23.268;2023-06-26T09:27:39;3.80;;;2.22;;
42246;SDS011;27913;42.722;23.268;2023-06-26T09:30:08;5.07;;;2.65;;
42246;SDS011;27913;42.722;23.268;2023-06-26T09:32:34;3.28;;;2.22;;
42246;SDS011;27913;42.722;23.268;2023-06-26T09:35:02;3.55;;;1.92;;
42246;SDS011;27913;42.722;23.268;2023-06-26T09:37:28;3.40;;;1.95;;
42246;SDS011;27913;42.722;23.268;2023-06-26T09:39:54;4.30;;;2.38;;
42246;SDS011;27913;42.722;23.268;2023-06-26T09:42:20;3.75;;;2.00;;
42246;SDS011;27913;42.722;23.268;2023-06-26T09:44:47;3.45;;;2.25;;
42246;SDS011;27913;42.722;23.268;2023-06-26T09:47:15;4.28;;;2.40;;
42246;SDS011;27913;42.722;23.268;2023-06-26T09:49:42;4.10;;;2.17;;
42246;SDS011;27913;42.722;23.268;2023-06-26T09:52:17;3.17;;;2.10;;
42246;SDS011;27913;42.722;23.268;2023-06-26T09:54:43;4.68;;;2.72;;
42246;SDS011;27913;42.722;23.268;2023-06-26T09:57:12;3.50;;;2.15;;
42246;SDS011;27913;42.722;23.268;2023-06-26T09:59:40;4.03;;;2.33;;
42246;SDS011;27913;42.722;23.268;2023-06-26T10:02:07;4.55;;;2.42;;
42246;SDS011;27913;42.722;23.268;2023-06-26T10:04:33;4.65;;;2.80;;
42246;SDS011;27913;42.722;23.268;2023-06-26T10:07:01;4.32;;;2.85;;
42246;SDS011;27913;42.722;23.268;2023-06-26T10:09:29;4.38;;;2.30;;
42246;SDS011;27913;42.722;23.268;2023-06-26T10:11:57;4.60;;;2.50;;
42246;SDS011;27913;42.722;23.268;2023-06-26T10:14:27;4.43;;;2.97;;
42246;SDS011;27913;42.722;23.268;2023-06-26T10:16:57;4.53;;;2.50;;
42246;SDS011;27913;42.722;23.268;2023-06-26T10:19:24;4.68;;;2.78;;
42246;SDS011;27913;42.722;23.268;2023-06-26T10:21:52;4.63;;;2.97;;
42246;SDS011;27913;42.722;23.268;2023-06-26T10:24:19;4.18;;;2.78;;
42246;SDS011;27913;42.722;23.268;2023-06-26T10:26:45;5.70;;;2.55;;
42246;SDS011;27913;42.722;23.268;2023-06-26T10:29:14;3.20;;;2.13;;
42246;SDS011;27913;42.722;23.268;2023-06-26T10:31:43;36.83;;;3.22;;
42246;SDS011;27913;42.722;23.268;2023-06-26T10:34:12;4.22;;;2.13;;
42246;SDS011;27913;42.722;23.268;2023-06-26T10:36:38;5.65;;;3.10;;
42246;SDS011;27913;42.722;23.268;2023-06-26T10:39:04;4.13;;;2.75;;
42246;SDS011;27913;42.722;23.268;2023-06-26T10:41:36;5.35;;;2.42;;
42246;SDS011;27913;42.722;23.268;2023-06-26T10:44:13;5.80;;;2.97;;
42246;SDS011;27913;42.722;23.268;2023-06-26T10:46:48;4.38;;;2.60;;
42246;SDS011;27913;42.722;23.268;2023-06-26T10:49:25;3.97;;;2.47;;
42246;SDS011;27913;42.722;23.268;2023-06-26T10:51:54;4.20;;;2.58;;
42246;SDS011;27913;42.722;23.268;2023-06-26T10:54:27;3.28;;;1.98;;
42246;SDS011;27913;42.722;23.268;2023-06-26T10:56:54;5.78;;;2.42;;
42246;SDS011;27913;42.722;23.268;2023-06-26T10:59:24;4.53;;;2.28;;
42246;SDS011;27913;42.722;23.268;2023-06-26T11:07:23;5.20;;;3.00;;
42246;SDS011;27913;42.722;23.268;2023-06-26T11:15:11;4.47;;;2.53;;
42246;SDS011;27913;42.722;23.268;2023-06-26T11:17:38;4.07;;;2.47;;
42246;SDS011;27913;42.722;23.268;2023-06-26T11:20:08;3.42;;;2.08;;
42246;SDS011;27913;42.722;23.268;2023-06-26T11:22:37;4.13;;;2.60;;
42246;SDS011;27913;42.722;23.268;2023-06-26T11:25:04;4.05;;;2.00;;
42246;SDS011;27913;42.722;23.268;2023-06-26T11:30:09;4.30;;;2.20;;
42246;SDS011;27913;42.722;23.268;2023-06-26T11:32:37;4.18;;;2.17;;
42246;SDS011;27913;42.722;23.268;2023-06-26T11:35:03;3.45;;;2.33;;
42246;SDS011;27913;42.722;23.268;2023-06-26T11:37:30;2.97;;;1.90;;
42246;SDS011;27913;42.722;23.268;2023-06-26T11:39:56;4.85;;;2.17;;
42246;SDS011;27913;42.722;23.268;2023-06-26T11:42:21;4.35;;;2.30;;
42246;SDS011;27913;42.722;23.268;2023-06-26T11:44:49;4.78;;;2.45;;
42246;SDS011;27913;42.722;23.268;2023-06-26T11:47:15;6.05;;;3.60;;
42246;SDS011;27913;42.722;23.268;2023-06-26T11:49:42;7.13;;;3.15;;
42246;SDS011;27913;42.722;23.268;2023-06-26T11:52:09;5.80;;;3.15;;
42246;SDS011;27913;42.722;23.268;2023-06-26T11:54:34;6.50;;;3.25;;
42246;SDS011;27913;42.722;23.268;2023-06-26T11:56:59;4.75;;;3.13;;
42246;SDS011;27913;42.722;23.268;2023-06-26T11:59:41;5.18;;;3.00;;
42246;SDS011;27913;42.722;23.268;2023-06-26T12:04:33;4.90;;;3.17;;
42246;SDS011;27913;42.722;23.268;2023-06-26T12:07:00;8.43;;;2.95;;
42246;SDS011;27913;42.722;23.268;2023-06-26T12:09:29;4.25;;;2.67;;
42246;SDS011;27913;42.722;23.268;2023-06-26T12:11:58;5.65;;;2.85;;
42246;SDS011;27913;42.722;23.268;2023-06-26T12:14:24;4.45;;;2.28;;
42246;SDS011;27913;42.722;23.268;2023-06-26T12:16:52;6.68;;;1.95;;
42246;SDS011;27913;42.722;23.268;2023-06-26T12:19:17;3.80;;;2.38;;
42246;SDS011;27913;42.722;23.268;2023-06-26T12:21:49;5.93;;;2.78;;
42246;SDS011;27913;42.722;23.268;2023-06-26T12:24:20;4.60;;;2.38;;
42246;SDS011;27913;42.722;23.268;2023-06-26T12:26:51;3.65;;;2.05;;
42246;SDS011;27913;42.722;23.268;2023-06-26T12:29:33;6.53;;;2.25;;
42246;SDS011;27913;42.722;23.268;2023-06-26T12:31:59;4.18;;;2.33;;
42246;SDS011;27913;42.722;23.268;2023-06-26T12:34:32;4.82;;;2.95;;
42246;SDS011;27913;42.722;23.268;2023-06-26T12:37:00;6.82;;;3.10;;
42246;SDS011;27913;42.722;23.268;2023-06-26T12:42:15;4.68;;;2.60;;
42246;SDS011;27913;42.722;23.268;2023-06-26T12:44:42;3.85;;;2.63;;
42246;SDS011;27913;42.722;23.268;2023-06-26T12:47:07;3.50;;;2.35;;
42246;SDS011;27913;42.722;23.268;2023-06-26T12:49:37;4.35;;;2.75;;
42246;SDS011;27913;42.722;23.268;2023-06-26T12:52:07;3.00;;;2.08;;
42246;SDS011;27913;42.722;23.268;2023-06-26T12:54:38;6.57;;;3.25;;
42246;SDS011;27913;42.722;23.268;2023-06-26T12:57:05;5.10;;;3.30;;
42246;SDS011;27913;42.722;23.268;2023-06-26T12:59:31;4.55;;;2.80;;
42246;SDS011;27913;42.722;23.268;2023-06-26T13:01:58;4.35;;;2.65;;
42246;SDS011;27913;42.722;23.268;2023-06-26T13:04:24;3.85;;;2.25;;
42246;SDS011;27913;42.722;23.268;2023-06-26T13:06:50;4.50;;;2.58;;
42246;SDS011;27913;42.722;23.268;2023-06-26T13:09:16;5.57;;;2.60;;
42246;SDS011;27913;42.722;23.268;2023-06-26T13:11:42;5.32;;;2.65;;
42246;SDS011;27913;42.722;23.268;2023-06-26T13:14:08;4.78;;;2.47;;
42246;SDS011;27913;42.722;23.268;2023-06-26T13:16:33;4.00;;;2.53;;
42246;SDS011;27913;42.722;23.268;2023-06-26T13:18:59;5.03;;;2.65;;
42246;SDS011;27913;42.722;23.268;2023-06-26T13:21:26;4.43;;;2.40;;
42246;SDS011;27913;42.722;23.268;2023-06-26T13:23:52;3.78;;;2.55;;
42246;SDS011;27913;42.722;23.268;2023-06-26T13:26:18;4.97;;;2.83;;
42246;SDS011;27913;42.722;23.268;2023-06-26T13:28:44;3.72;;;2.22;;
42246;SDS011;27913;42.722;23.268;2023-06-26T13:31:10;3.90;;;2.47;;
42246;SDS011;27913;42.722;23.268;2023-06-26T13:33:35;15.15;;;2.47;;
42246;SDS011;27913;42.722;23.268;2023-06-26T13:36:01;5.45;;;2.92;;
42246;SDS011;27913;42.722;23.268;2023-06-26T13:38:29;4.20;;;2.38;;
42246;SDS011;27913;42.722;23.268;2023-06-26T13:40:55;3.45;;;2.38;;
42246;SDS011;27913;42.722;23.268;2023-06-26T13:43:22;4.72;;;2.60;;
42246;SDS011;27913;42.722;23.268;2023-06-26T13:45:48;5.53;;;2.78;;
42246;SDS011;27913;42.722;23.268;2023-06-26T13:48:14;4.72;;;2.45;;
42246;SDS011;27913;42.722;23.268;2023-06-26T13:50:40;5.07;;;2.55;;
42246;SDS011;27913;42.722;23.268;2023-06-26T13:53:05;5.35;;;2.88;;
42246;SDS011;27913;42.722;23.268;2023-06-26T13:55:31;6.35;;;2.75;;
42246;SDS011;27913;42.722;23.268;2023-06-26T13:57:58;6.70;;;3.17;;
42246;SDS011;27913;42.722;23.268;2023-06-26T14:00:24;4.15;;;2.53;;
42246;SDS011;27913;42.722;23.268;2023-06-26T14:02:50;4.75;;;2.53;;
42246;SDS011;27913;42.722;23.268;2023-06-26T14:05:16;3.85;;;2.40;;
42246;SDS011;27913;42.722;23.268;2023-06-26T14:07:43;4.53;;;2.53;;
42246;SDS011;27913;42.722;23.268;2023-06-26T14:10:09;3.50;;;2.25;;
42246;SDS011;27913;42.722;23.268;2023-06-26T14:12:35;3.63;;;2.25;;
42246;SDS011;27913;42.722;23.268;2023-06-26T14:15:00;4.80;;;2.58;;
42246;SDS011;27913;42.722;23.268;2023-06-26T14:17:26;5.50;;;3.10;;
42246;SDS011;27913;42.722;23.268;2023-06-26T14:19:52;4.75;;;2.58;;
42246;SDS011;27913;42.722;23.268;2023-06-26T14:22:18;4.43;;;2.30;;
42246;SDS011;27913;42.722;23.268;2023-06-26T14:24:43;4.40;;;2.55;;
42246;SDS011;27913;42.722;23.268;2023-06-26T14:27:09;4.10;;;2.22;;
42246;SDS011;27913;42.722;23.268;2023-06-26T14:29:35;3.20;;;2.33;;
42246;SDS011;27913;42.722;23.268;2023-06-26T14:32:01;4.90;;;2.75;;
42246;SDS011;27913;42.722;23.268;2023-06-26T14:34:27;7.35;;;2.75;;
42246;SDS011;27913;42.722;23.268;2023-06-26T14:36:53;4.60;;;2.38;;
42246;SDS011;27913;42.722;23.268;2023-06-26T14:39:18;3.08;;;2.17;;
42246;SDS011;27913;42.722;23.268;2023-06-26T14:41:44;4.53;;;1.95;;
42246;SDS011;27913;42.722;23.268;2023-06-26T14:44:09;2.83;;;2.00;;
42246;SDS011;27913;42.722;23.268;2023-06-26T14:46:36;3.88;;;2.42;;
42246;SDS011;27913;42.722;23.268;2023-06-26T14:50:00;3.42;;;2.15;;
42246;SDS011;27913;42.722;23.268;2023-06-26T14:52:25;5.32;;;2.22;;
42246;SDS011;27913;42.722;23.268;2023-06-26T14:54:51;5.65;;;2.45;;
42246;SDS011;27913;42.722;23.268;2023-06-26T14:57:17;3.13;;;2.20;;